createdAt,value
2022-10-28T00:01:17.500Z,4.17
2022-10-28T00:03:49.849Z,4.40
2022-10-28T00:06:19.497Z,3.87
2022-10-28T00:08:46.370Z,4.03
2022-10-28T00:11:16.544Z,4.13
2022-10-28T00:13:44.508Z,3.70
2022-10-28T00:16:17.497Z,3.93
2022-10-28T00:18:44.604Z,4.47
2022-10-28T00:21:15.110Z,4.60
2022-10-28T00:23:42.108Z,4.03
2022-10-28T00:26:15.264Z,4.07
2022-10-28T00:28:44.455Z,4.47
2022-10-28T00:31:12.403Z,3.73
2022-10-28T00:33:38.985Z,3.37
2022-10-28T00:36:12.427Z,4.27
2022-10-28T00:38:39.863Z,4.57
2022-10-28T00:41:06.810Z,4.07
2022-10-28T00:43:35.315Z,4.47
2022-10-28T00:46:02.509Z,4.03
2022-10-28T00:48:29.171Z,4.20
2022-10-28T00:50:55.654Z,4.27
2022-10-28T00:53:29.398Z,3.63
2022-10-28T00:55:59.753Z,4.93
2022-10-28T00:58:27.229Z,3.43
2022-10-28T01:00:54.147Z,4.13
2022-10-28T01:03:20.926Z,4.17
2022-10-28T01:05:49.158Z,4.33
2022-10-28T01:08:17.000Z,4.23
2022-10-28T01:11:20.953Z,4.07
2022-10-28T01:14:12.649Z,3.40
2022-10-28T01:16:45.874Z,3.80
2022-10-28T01:19:33.585Z,3.83
2022-10-28T01:22:16.470Z,3.77
2022-10-28T01:25:07.259Z,3.87
2022-10-28T01:27:42.557Z,3.90
2022-10-28T01:30:11.331Z,3.90
2022-10-28T01:32:54.462Z,3.83
2022-10-28T01:35:52.805Z,4.27
2022-10-28T01:38:33.204Z,4.03
2022-10-28T01:41:15.262Z,4.03
2022-10-28T01:43:57.569Z,3.70
2022-10-28T01:47:08.645Z,3.77
2022-10-28T01:50:05.497Z,3.90
2022-10-28T01:52:32.545Z,3.80
2022-10-28T01:55:06.117Z,3.37
2022-10-28T01:57:36.011Z,3.53
2022-10-28T02:00:02.876Z,3.77
2022-10-28T02:02:34.228Z,3.83
2022-10-28T02:05:33.030Z,4.20
2022-10-28T02:08:07.149Z,4.37
2022-10-28T02:10:39.208Z,3.50
2022-10-28T02:13:13.649Z,4.13
2022-10-28T02:15:55.620Z,4.00
2022-10-28T02:18:59.852Z,3.80
2022-10-28T02:21:48.093Z,3.47
2022-10-28T02:24:22.806Z,3.43
2022-10-28T02:27:09.554Z,4.23
2022-10-28T02:29:41.143Z,4.07
2022-10-28T02:32:14.481Z,3.43
2022-10-28T02:34:46.969Z,4.30
2022-10-28T02:37:20.821Z,4.30
2022-10-28T02:39:52.985Z,3.53
2022-10-28T02:42:28.267Z,3.80
2022-10-28T02:45:07.833Z,4.10
2022-10-28T02:47:37.628Z,3.73
2022-10-28T02:50:09.917Z,4.27
2022-10-28T02:52:36.594Z,3.83
2022-10-28T02:55:05.391Z,4.00
2022-10-28T02:57:39.134Z,3.70
2022-10-28T03:00:09.689Z,3.83
2022-10-28T03:02:36.211Z,3.57
2022-10-28T03:05:05.074Z,4.10
2022-10-28T03:07:31.452Z,3.57
2022-10-28T03:09:58.026Z,3.97
2022-10-28T03:12:24.363Z,3.63
2022-10-28T03:14:50.826Z,4.03
2022-10-28T03:17:17.239Z,3.80
2022-10-28T03:19:43.557Z,3.80
2022-10-28T03:22:10.001Z,3.97
2022-10-28T03:24:36.329Z,4.20
2022-10-28T03:27:02.852Z,3.70
2022-10-28T03:29:29.402Z,4.03
2022-10-28T03:31:55.706Z,4.07
2022-10-28T03:34:22.042Z,3.77
2022-10-28T03:36:48.538Z,4.00
2022-10-28T03:39:14.953Z,5.37
2022-10-28T03:41:41.605Z,3.73
2022-10-28T03:44:08.088Z,4.63
2022-10-28T03:46:36.026Z,4.03
2022-10-28T03:49:03.336Z,4.27
2022-10-28T03:51:29.827Z,3.80
2022-10-28T03:53:56.197Z,4.13
2022-10-28T03:56:22.612Z,3.60
2022-10-28T03:58:49.903Z,3.63
2022-10-28T04:01:16.827Z,4.47
2022-10-28T04:03:43.298Z,3.87
2022-10-28T04:06:12.878Z,3.53
2022-10-28T04:08:39.188Z,4.03
2022-10-28T04:11:06.130Z,4.40
2022-10-28T04:13:32.472Z,4.20
2022-10-28T04:15:59.105Z,4.17
2022-10-28T04:18:25.539Z,4.10
2022-10-28T04:20:51.972Z,3.90
2022-10-28T04:23:19.154Z,4.50
2022-10-28T04:25:45.552Z,3.70
2022-10-28T04:28:12.013Z,4.57
2022-10-28T04:30:38.459Z,4.10
2022-10-28T04:33:04.770Z,3.90
2022-10-28T04:35:31.226Z,4.50
2022-10-28T04:37:57.528Z,3.87
2022-10-28T04:40:23.982Z,3.60
2022-10-28T04:42:50.537Z,3.90
2022-10-28T04:45:17.287Z,3.70
2022-10-28T04:47:43.614Z,4.30
2022-10-28T04:50:09.951Z,3.80
2022-10-28T04:52:36.358Z,4.10
2022-10-28T04:55:02.737Z,3.77
2022-10-28T04:57:29.298Z,3.73
2022-10-28T04:59:55.697Z,3.77
2022-10-28T05:02:23.125Z,4.50
2022-10-28T05:04:49.585Z,3.70
2022-10-28T05:07:17.669Z,3.83
2022-10-28T05:09:46.388Z,4.50
2022-10-28T05:12:12.697Z,3.70
2022-10-28T05:14:38.998Z,3.73
2022-10-28T05:17:05.647Z,4.50
2022-10-28T05:19:32.020Z,4.50
2022-10-28T05:21:58.330Z,3.73
2022-10-28T05:24:24.673Z,4.70
2022-10-28T05:26:51.013Z,4.20
2022-10-28T05:29:19.509Z,3.67
2022-10-28T05:31:46.350Z,4.27
2022-10-28T05:34:12.709Z,4.33
2022-10-28T05:36:39.014Z,4.07
2022-10-28T05:39:05.592Z,4.53
2022-10-28T05:41:35.144Z,4.20
2022-10-28T05:44:04.263Z,4.13
2022-10-28T05:46:30.550Z,4.20
2022-10-28T05:48:57.324Z,4.03
2022-10-28T05:51:23.662Z,4.10
2022-10-28T05:53:51.170Z,4.47
2022-10-28T05:56:18.385Z,4.10
2022-10-28T05:58:44.899Z,4.30
2022-10-28T06:01:11.412Z,4.43
2022-10-28T06:03:37.765Z,4.83
2022-10-28T06:06:04.211Z,4.20
2022-10-28T06:08:30.662Z,4.00
2022-10-28T06:10:55.504Z,4.17
2022-10-28T06:13:22.065Z,4.00
2022-10-28T06:15:55.576Z,4.13
2022-10-28T06:18:22.968Z,4.10
2022-10-28T06:20:54.263Z,4.93
2022-10-28T06:23:22.173Z,4.57
2022-10-28T06:25:48.745Z,4.50
2022-10-28T06:28:15.592Z,4.77
2022-10-28T06:30:42.262Z,4.53
2022-10-28T06:33:08.575Z,4.20
2022-10-28T06:35:34.960Z,4.60
2022-10-28T06:38:03.752Z,4.33
2022-10-28T06:40:32.239Z,4.37
2022-10-28T06:43:04.523Z,4.17
2022-10-28T06:45:33.004Z,4.13
2022-10-28T06:48:03.729Z,4.17
2022-10-28T06:50:31.311Z,4.30
2022-10-28T06:52:58.417Z,4.33
2022-10-28T06:55:28.929Z,3.83
2022-10-28T06:57:59.932Z,4.30
2022-10-28T07:00:26.809Z,4.40
2022-10-28T07:02:54.345Z,5.37
2022-10-28T07:05:22.588Z,4.60
2022-10-28T07:07:49.036Z,4.67
2022-10-28T07:10:15.836Z,4.00
2022-10-28T07:12:42.227Z,3.90
2022-10-28T07:15:09.853Z,4.33
2022-10-28T07:17:36.171Z,3.97
2022-10-28T07:20:02.546Z,4.80
2022-10-28T07:22:29.032Z,4.60
2022-10-28T07:24:55.436Z,3.87
2022-10-28T07:27:21.853Z,3.87
2022-10-28T07:29:48.184Z,4.40
2022-10-28T07:32:14.514Z,4.07
2022-10-28T07:34:40.889Z,4.07
2022-10-28T07:37:07.219Z,4.30
2022-10-28T07:39:33.696Z,4.10
2022-10-28T07:42:01.347Z,4.20
2022-10-28T07:44:28.416Z,4.17
2022-10-28T07:46:57.987Z,4.00
2022-10-28T07:49:25.215Z,4.40
2022-10-28T07:51:51.705Z,4.20
2022-10-28T07:54:18.071Z,3.80
2022-10-28T07:56:44.399Z,4.27
2022-10-28T07:59:10.762Z,4.00
2022-10-28T08:01:37.462Z,4.70
2022-10-28T08:04:03.858Z,4.13
2022-10-28T08:06:30.444Z,3.83
2022-10-28T08:08:56.897Z,3.57
2022-10-28T08:11:24.048Z,4.80
2022-10-28T08:13:53.971Z,4.17
2022-10-28T08:16:20.336Z,4.77
2022-10-28T08:18:46.799Z,4.00
2022-10-28T08:21:14.116Z,4.27
2022-10-28T08:23:41.523Z,3.90
2022-10-28T08:26:08.493Z,4.17
2022-10-28T08:28:34.815Z,4.93
2022-10-28T08:31:10.101Z,3.93
2022-10-28T08:33:38.318Z,4.87
2022-10-28T08:36:05.822Z,4.27
2022-10-28T08:38:32.182Z,4.43
2022-10-28T08:41:15.236Z,3.70
2022-10-28T08:44:09.516Z,4.20
2022-10-28T08:46:52.363Z,3.83
2022-10-28T08:49:22.453Z,4.00
2022-10-28T08:51:54.975Z,3.73
2022-10-28T08:54:33.775Z,4.23
2022-10-28T08:57:02.637Z,4.20
2022-10-28T08:59:52.084Z,4.43
2022-10-28T09:02:22.311Z,3.70
2022-10-28T09:04:54.839Z,4.20
2022-10-28T09:07:22.147Z,4.07
2022-10-28T09:09:50.367Z,4.77
2022-10-28T09:12:51.141Z,3.67
2022-10-28T09:15:20.646Z,3.93
2022-10-28T09:17:56.758Z,3.87
2022-10-28T09:20:23.215Z,3.67
2022-10-28T09:22:58.386Z,3.83
2022-10-28T09:25:48.611Z,4.10
2022-10-28T09:28:31.246Z,4.37
2022-10-28T09:31:24.489Z,4.07
2022-10-28T09:34:03.247Z,4.23
2022-10-28T09:36:56.074Z,4.43
2022-10-28T09:39:28.448Z,4.10
2022-10-28T09:41:58.384Z,4.30
2022-10-28T09:44:46.835Z,4.30
2022-10-28T09:47:19.432Z,3.90
2022-10-28T09:49:48.299Z,3.80
2022-10-28T09:52:21.752Z,4.50
2022-10-28T09:54:53.169Z,4.07
2022-10-28T09:57:22.028Z,3.60
2022-10-28T09:59:48.395Z,4.40
2022-10-28T10:02:27.041Z,3.73
2022-10-28T10:04:55.768Z,4.07
2022-10-28T10:07:28.746Z,3.93
2022-10-28T10:09:57.499Z,4.00
2022-10-28T10:12:24.520Z,3.77
2022-10-28T10:14:56.578Z,3.92
2022-10-28T10:17:29.735Z,3.97
2022-10-28T10:20:10.035Z,3.47
2022-10-28T10:22:37.530Z,3.97
2022-10-28T10:25:23.141Z,3.50
2022-10-28T10:27:55.501Z,4.35
2022-10-28T10:30:25.610Z,4.30
2022-10-28T10:32:52.809Z,4.40
2022-10-28T10:35:25.190Z,3.97
2022-10-28T10:37:53.699Z,3.88
2022-10-28T10:40:33.507Z,4.18
2022-10-28T10:43:18.369Z,4.32
2022-10-28T10:46:01.469Z,4.05
2022-10-28T10:48:33.800Z,3.65
2022-10-28T10:51:06.901Z,4.38
2022-10-28T10:53:35.304Z,3.95
2022-10-28T10:56:04.992Z,3.63
2022-10-28T10:58:34.816Z,3.65
2022-10-28T11:01:05.466Z,4.72
2022-10-28T11:03:34.819Z,4.13
2022-10-28T11:06:22.436Z,4.45
2022-10-28T11:08:55.971Z,3.88
2022-10-28T11:11:22.723Z,4.75
2022-10-28T11:14:03.363Z,4.20
2022-10-28T11:16:29.756Z,3.97
2022-10-28T11:18:56.196Z,3.65
2022-10-28T11:21:32.920Z,4.22
2022-10-28T11:24:02.214Z,4.28
2022-10-28T11:26:31.178Z,3.88
2022-10-28T11:29:09.844Z,4.15
2022-10-28T11:31:51.561Z,3.90
2022-10-28T11:34:45.368Z,3.90
2022-10-28T11:37:19.889Z,4.20
2022-10-28T11:40:15.531Z,3.53
2022-10-28T11:43:23.287Z,4.45
2022-10-28T11:46:23.814Z,3.70
2022-10-28T11:49:18.960Z,4.00
2022-10-28T11:51:58.447Z,4.22
2022-10-28T11:55:05.332Z,4.53
2022-10-28T11:57:37.338Z,3.95
2022-10-28T12:00:21.267Z,4.90
2022-10-28T12:03:07.932Z,4.40
2022-10-28T12:05:52.402Z,4.28
2022-10-28T12:11:47.385Z,3.70
2022-10-28T12:14:19.651Z,4.00
2022-10-28T12:16:58.405Z,3.88
2022-10-28T12:19:32.546Z,4.43
2022-10-28T12:22:06.455Z,4.18
2022-10-28T12:24:39.603Z,3.85
2022-10-28T12:27:32.468Z,4.30
2022-10-28T12:30:06.251Z,4.45
2022-10-28T12:32:35.983Z,4.97
2022-10-28T12:35:13.147Z,3.50
2022-10-28T12:37:47.708Z,3.78
2022-10-28T12:40:51.258Z,4.13
2022-10-28T12:43:29.263Z,4.30
2022-10-28T12:45:56.342Z,4.60
2022-10-28T12:48:31.703Z,4.18
2022-10-28T12:51:13.750Z,4.65
2022-10-28T12:53:47.152Z,3.80
2022-10-28T12:56:28.832Z,4.40
2022-10-28T12:59:13.316Z,4.40
2022-10-28T13:01:40.885Z,3.83
2022-10-28T13:04:12.815Z,4.00
2022-10-28T13:06:45.354Z,4.00
2022-10-28T13:09:39.174Z,4.25
2022-10-28T13:12:43.008Z,4.13
2022-10-28T13:15:25.715Z,4.13
2022-10-28T13:18:37.290Z,3.60
2022-10-28T13:21:25.618Z,3.85
2022-10-28T13:24:01.417Z,3.80
2022-10-28T13:26:36.487Z,3.92
2022-10-28T13:29:07.179Z,4.75
2022-10-28T13:31:42.127Z,4.13
2022-10-28T13:34:10.060Z,3.75
2022-10-28T13:36:40.908Z,3.75
2022-10-28T13:39:23.267Z,4.38
2022-10-28T13:42:12.345Z,4.20
2022-10-28T13:45:02.382Z,3.75
2022-10-28T13:47:34.089Z,4.20
2022-10-28T13:50:06.700Z,4.32
2022-10-28T13:52:38.108Z,4.45
2022-10-28T13:55:13.693Z,5.32
2022-10-28T13:57:44.399Z,3.92
2022-10-28T14:00:23.688Z,4.75
2022-10-28T14:02:56.378Z,4.22
2022-10-28T14:05:47.132Z,3.70
2022-10-28T14:08:25.014Z,4.70
2022-10-28T14:11:20.511Z,4.15
2022-10-28T14:13:50.661Z,4.00
2022-10-28T14:16:30.083Z,4.13
2022-10-28T14:19:00.294Z,4.30
2022-10-28T14:21:45.375Z,3.90
2022-10-28T14:24:29.580Z,4.53
2022-10-28T14:27:15.374Z,4.88
2022-10-28T14:29:49.405Z,4.63
2022-10-28T14:32:30.928Z,5.05
2022-10-28T14:35:15.731Z,4.03
2022-10-28T14:38:04.058Z,4.60
2022-10-28T14:40:46.608Z,4.18
2022-10-28T14:43:26.453Z,4.72
2022-10-28T14:46:03.299Z,4.40
2022-10-28T14:48:35.932Z,3.95
2022-10-28T14:51:03.155Z,4.63
2022-10-28T14:53:33.415Z,3.92
2022-10-28T14:58:51.208Z,4.63
2022-10-28T15:01:17.977Z,4.32
2022-10-28T15:03:47.868Z,4.40
2022-10-28T15:06:30.922Z,3.92
2022-10-28T15:09:22.232Z,4.38
2022-10-28T15:11:53.099Z,4.57
2022-10-28T15:14:27.926Z,4.88
2022-10-28T15:16:55.076Z,3.88
2022-10-28T15:19:24.304Z,4.53
2022-10-28T15:22:15.920Z,4.28
2022-10-28T15:24:46.238Z,4.15
2022-10-28T15:27:14.184Z,3.83
2022-10-28T15:29:42.353Z,4.22
2022-10-28T15:32:23.841Z,4.40
2022-10-28T15:34:50.279Z,4.07
2022-10-28T15:37:18.219Z,4.15
2022-10-28T15:39:49.283Z,4.65
2022-10-28T15:42:28.364Z,4.82
2022-10-28T15:44:56.631Z,4.03
2022-10-28T15:47:32.796Z,4.03
2022-10-28T15:50:14.644Z,5.15
2022-10-28T15:52:42.958Z,4.55
2022-10-28T15:55:18.696Z,4.40
2022-10-28T15:57:52.852Z,3.80
2022-10-28T16:00:22.733Z,4.95
2022-10-28T16:02:53.390Z,5.20
2022-10-28T16:05:44.836Z,4.25
2022-10-28T16:08:20.895Z,3.97
2022-10-28T16:10:54.732Z,4.70
2022-10-28T16:13:32.412Z,5.03
2022-10-28T16:16:02.904Z,4.63
2022-10-28T16:18:31.213Z,4.90
2022-10-28T16:21:00.182Z,5.43
2022-10-28T16:23:35.592Z,4.97
2022-10-28T16:26:02.004Z,4.63
2022-10-28T16:28:28.940Z,4.22
2022-10-28T16:30:57.698Z,4.60
2022-10-28T16:33:30.969Z,4.32
2022-10-28T16:35:57.440Z,5.30
2022-10-28T16:38:24.319Z,4.63
2022-10-28T16:40:52.550Z,4.68
2022-10-28T16:43:21.876Z,4.85
2022-10-28T16:45:49.612Z,4.82
2022-10-28T16:48:17.298Z,5.25
2022-10-28T16:50:49.820Z,5.30
2022-10-28T16:53:16.512Z,5.20
2022-10-28T16:55:43.119Z,5.25
2022-10-28T16:58:09.648Z,5.35
2022-10-28T17:00:36.900Z,5.17
2022-10-28T17:03:03.793Z,5.17
2022-10-28T17:05:30.751Z,5.13
2022-10-28T17:07:58.092Z,6.20
2022-10-28T17:10:25.102Z,5.03
2022-10-28T17:12:51.872Z,5.63
2022-10-28T17:15:19.945Z,5.80
2022-10-28T17:17:51.205Z,5.83
2022-10-28T17:20:17.945Z,5.90
2022-10-28T17:22:44.343Z,5.73
2022-10-28T17:25:11.012Z,6.82
2022-10-28T17:27:37.460Z,6.57
2022-10-28T17:30:04.968Z,6.07
2022-10-28T17:32:31.452Z,5.73
2022-10-28T17:34:57.868Z,6.90
2022-10-28T17:37:24.231Z,6.60
2022-10-28T17:39:50.749Z,7.17
2022-10-28T17:42:17.356Z,6.53
2022-10-28T17:44:43.703Z,6.30
2022-10-28T17:47:12.100Z,7.10
2022-10-28T17:49:38.463Z,7.03
2022-10-28T17:52:04.809Z,6.10
2022-10-28T17:54:31.200Z,6.60
2022-10-28T17:56:57.537Z,6.20
2022-10-28T17:59:23.927Z,6.50
2022-10-28T18:01:50.485Z,6.50
2022-10-28T18:04:16.987Z,6.27
2022-10-28T18:06:43.451Z,6.43
2022-10-28T18:09:13.774Z,6.50
2022-10-28T18:11:40.766Z,6.37
2022-10-28T18:14:07.117Z,6.27
2022-10-28T18:16:36.526Z,8.13
2022-10-28T18:19:05.620Z,6.87
2022-10-28T18:21:32.490Z,6.67
2022-10-28T18:24:04.037Z,6.80
2022-10-28T18:26:32.115Z,7.40
2022-10-28T18:28:58.900Z,6.67
2022-10-28T18:31:25.833Z,6.73
2022-10-28T18:33:52.298Z,6.87
2022-10-28T18:36:23.585Z,7.57
2022-10-28T18:38:50.972Z,7.93
2022-10-28T18:41:19.929Z,7.03
2022-10-28T18:43:47.200Z,6.77
2022-10-28T18:46:14.239Z,7.97
2022-10-28T18:48:40.965Z,7.00
2022-10-28T18:51:10.859Z,7.77
2022-10-28T18:53:39.774Z,8.23
2022-10-28T18:56:08.425Z,7.40
2022-10-28T18:58:35.315Z,7.10
2022-10-28T19:01:08.284Z,8.50
2022-10-28T19:03:35.443Z,8.10
2022-10-28T19:06:08.025Z,8.40
2022-10-28T19:08:34.842Z,8.57
2022-10-28T19:11:02.486Z,7.60
2022-10-28T19:13:32.300Z,7.80
2022-10-28T19:15:59.590Z,7.37
2022-10-28T19:18:26.097Z,7.97
2022-10-28T19:20:52.433Z,7.57
2022-10-28T19:23:18.900Z,7.60
2022-10-28T19:25:54.512Z,7.53
2022-10-28T19:28:20.979Z,7.43
2022-10-28T19:30:47.408Z,8.37
2022-10-28T19:33:14.124Z,7.73
2022-10-28T19:35:40.575Z,7.73
2022-10-28T19:38:07.005Z,7.40
2022-10-28T19:40:33.432Z,7.70
2022-10-28T19:42:59.895Z,9.07
2022-10-28T19:45:26.289Z,7.47
2022-10-28T19:47:52.882Z,7.30
2022-10-28T19:50:19.723Z,8.57
2022-10-28T19:52:46.185Z,8.80
2022-10-28T19:55:15.002Z,8.13
2022-10-28T19:57:41.683Z,8.43
2022-10-28T20:00:09.246Z,9.10
2022-10-28T20:02:35.675Z,8.53
2022-10-28T20:05:02.183Z,8.87
2022-10-28T20:07:28.516Z,8.90
2022-10-28T20:09:54.897Z,10.23
2022-10-28T20:12:21.455Z,9.40
2022-10-28T20:14:47.775Z,9.50
2022-10-28T20:17:15.316Z,8.70
2022-10-28T20:19:42.156Z,8.37
2022-10-28T20:22:08.538Z,8.30
2022-10-28T20:24:34.904Z,7.93
2022-10-28T20:27:01.285Z,8.67
2022-10-28T20:29:27.713Z,8.90
2022-10-28T20:31:54.239Z,9.23
2022-10-28T20:34:22.057Z,8.30
2022-10-28T20:36:48.531Z,8.27
2022-10-28T20:39:17.608Z,9.37
2022-10-28T20:41:46.496Z,8.83
2022-10-28T20:44:13.021Z,8.33
2022-10-28T20:46:39.995Z,9.60
2022-10-28T20:49:08.565Z,9.47
2022-10-28T20:51:35.315Z,9.30
2022-10-28T20:54:02.003Z,10.23
2022-10-28T20:56:32.120Z,9.70
2022-10-28T20:58:59.164Z,9.47
2022-10-28T21:01:28.986Z,9.77
2022-10-28T21:04:01.279Z,9.27
2022-10-28T21:06:28.571Z,8.83
2022-10-28T21:08:56.451Z,9.57
2022-10-28T21:11:24.016Z,9.73
2022-10-28T21:13:53.324Z,9.27
2022-10-28T21:16:21.286Z,9.13
2022-10-28T21:18:50.029Z,9.30
2022-10-28T21:21:17.860Z,9.17
2022-10-28T21:23:44.545Z,8.70
2022-10-28T21:26:12.359Z,8.37
2022-10-28T21:28:41.381Z,8.27
2022-10-28T21:31:13.493Z,8.97
2022-10-28T21:33:40.841Z,9.23
2022-10-28T21:36:10.995Z,8.93
2022-10-28T21:38:37.503Z,9.27
2022-10-28T21:41:18.665Z,8.67
2022-10-28T21:43:47.972Z,7.93
2022-10-28T21:46:14.434Z,7.87
2022-10-28T21:48:40.796Z,8.40
2022-10-28T21:51:13.464Z,8.83
2022-10-28T21:53:42.630Z,8.10
2022-10-28T21:56:15.585Z,8.37
2022-10-28T21:58:43.685Z,7.93
2022-10-28T22:01:16.426Z,7.50
2022-10-28T22:03:42.858Z,8.03
2022-10-28T22:06:09.460Z,8.47
2022-10-28T22:08:35.803Z,7.90
2022-10-28T22:11:03.545Z,7.97
2022-10-28T22:13:30.286Z,8.27
2022-10-28T22:16:05.416Z,7.87
2022-10-28T22:18:35.146Z,8.37
2022-10-28T22:21:11.819Z,8.27
2022-10-28T22:23:38.604Z,7.63
2022-10-28T22:26:07.318Z,8.30
2022-10-28T22:28:34.045Z,8.00
2022-10-28T22:31:09.270Z,8.13
2022-10-28T22:33:36.073Z,7.43
2022-10-28T22:36:05.253Z,8.03
2022-10-28T22:38:31.655Z,8.23
2022-10-28T22:41:18.671Z,7.30
2022-10-28T22:43:50.964Z,8.27
2022-10-28T22:46:18.327Z,7.50
2022-10-28T22:48:45.513Z,8.00
2022-10-28T22:51:12.404Z,7.13
2022-10-28T22:53:40.166Z,8.50
2022-10-28T22:56:08.854Z,7.77
2022-10-28T22:58:35.291Z,7.53
2022-10-28T23:01:06.021Z,8.47
2022-10-28T23:03:38.319Z,8.80
2022-10-28T23:06:04.798Z,7.27
2022-10-28T23:08:31.755Z,7.93
2022-10-28T23:10:58.160Z,7.20
2022-10-28T23:13:24.621Z,8.07
2022-10-28T23:15:51.315Z,7.70
2022-10-28T23:18:17.647Z,7.77
2022-10-28T23:20:43.979Z,7.63
2022-10-28T23:23:10.447Z,7.00
2022-10-28T23:25:36.764Z,7.83
2022-10-28T23:28:06.515Z,7.27
2022-10-28T23:30:32.868Z,7.47
2022-10-28T23:32:59.216Z,7.50
2022-10-28T23:35:25.682Z,7.03
2022-10-28T23:37:52.121Z,7.37
2022-10-28T23:40:18.573Z,7.23
2022-10-28T23:42:45.017Z,7.87
2022-10-28T23:45:11.412Z,6.93
2022-10-28T23:47:37.753Z,7.70
2022-10-28T23:50:04.645Z,7.13
2022-10-28T23:52:31.050Z,7.67
2022-10-28T23:54:57.459Z,7.80
2022-10-28T23:57:23.936Z,7.10
2022-10-28T23:59:50.262Z,6.77
